Terminal Aerodrome Forecast
Issued by NWS

Home | Current Version | Previous Version | Text Only | Print | Product List | Glossary On
Versions: 1 2 3 4 5 6 7 8 9 10 11 12 13 14 15 16 17 18 19 20 21 22 23
000
FTUS41 KBTV 221730
TAFSLK
TAF
KSLK 221730Z 2218/2318 06005KT 6SM BR OVC004
     FM222000 06005KT P6SM OVC008
     FM230400 06005KT P6SM OVC015
     FM230800 07004KT P6SM OVC025
     FM231100 06005KT P6SM BKN035
     FM231600 08009KT P6SM OVC060=

USA.gov is the U.S. government's official web portal to all federal, state and local government web resources and services.